sensor_id;sensor_type;location;lat;lon;timestamp;pressure;altitude;pressure_sealevel;temperature;humidity
73106;BME280;61559;50.476;15.588;2023-03-01T00:00:22;98759.48;;;-3.47;73.80
73106;BME280;61559;50.476;15.588;2023-03-01T00:03:12;98755.13;;;-3.48;73.81
73106;BME280;61559;50.476;15.588;2023-03-01T00:05:46;98757.77;;;-3.51;73.67
73106;BME280;61559;50.476;15.588;2023-03-01T00:08:17;98756.52;;;-3.54;74.02
73106;BME280;61559;50.476;15.588;2023-03-01T00:10:48;98752.02;;;-3.58;74.28
73106;BME280;61559;50.476;15.588;2023-03-01T00:13:19;98752.66;;;-3.66;74.47
73106;BME280;61559;50.476;15.588;2023-03-01T00:15:51;98750.81;;;-3.70;74.50
73106;BME280;61559;50.476;15.588;2023-03-01T00:18:22;98750.83;;;-3.73;74.55
73106;BME280;61559;50.476;15.588;2023-03-01T00:20:55;98746.63;;;-3.75;74.61
73106;BME280;61559;50.476;15.588;2023-03-01T00:23:27;98750.27;;;-3.76;74.58
73106;BME280;61559;50.476;15.588;2023-03-01T00:25:58;98745.86;;;-3.80;74.53
73106;BME280;61559;50.476;15.588;2023-03-01T00:28:30;98745.30;;;-3.84;74.39
73106;BME280;61559;50.476;15.588;2023-03-01T00:31:05;98745.77;;;-3.89;74.69
73106;BME280;61559;50.476;15.588;2023-03-01T00:33:37;98747.85;;;-3.94;75.09
73106;BME280;61559;50.476;15.588;2023-03-01T00:36:09;98744.28;;;-3.95;75.43
73106;BME280;61559;50.476;15.588;2023-03-01T00:38:42;98742.43;;;-3.95;75.43
73106;BME280;61559;50.476;15.588;2023-03-01T00:41:15;98742.77;;;-3.95;75.21
73106;BME280;61559;50.476;15.588;2023-03-01T00:43:47;98740.82;;;-3.97;75.14
73106;BME280;61559;50.476;15.588;2023-03-01T00:46:20;98741.90;;;-3.98;75.26
73106;BME280;61559;50.476;15.588;2023-03-01T00:48:52;98735.66;;;-3.99;75.24
73106;BME280;61559;50.476;15.588;2023-03-01T00:51:25;98736.46;;;-4.00;75.66
73106;BME280;61559;50.476;15.588;2023-03-01T00:53:57;98738.46;;;-4.01;75.78
73106;BME280;61559;50.476;15.588;2023-03-01T00:56:30;98735.56;;;-4.02;76.09
73106;BME280;61559;50.476;15.588;2023-03-01T00:59:02;98739.59;;;-4.02;76.04
73106;BME280;61559;50.476;15.588;2023-03-01T01:01:33;98736.72;;;-4.02;76.23
73106;BME280;61559;50.476;15.588;2023-03-01T01:04:06;98734.32;;;-4.02;76.15
73106;BME280;61559;50.476;15.588;2023-03-01T01:06:39;98735.41;;;-4.01;76.14
73106;BME280;61559;50.476;15.588;2023-03-01T01:09:13;98734.09;;;-4.01;76.18
73106;BME280;61559;50.476;15.588;2023-03-01T01:11:49;98734.05;;;-4.01;76.02
73106;BME280;61559;50.476;15.588;2023-03-01T01:14:21;98732.96;;;-4.02;76.16
73106;BME280;61559;50.476;15.588;2023-03-01T01:16:52;98732.34;;;-4.03;75.90
73106;BME280;61559;50.476;15.588;2023-03-01T01:19:23;98728.80;;;-4.05;76.01
73106;BME280;61559;50.476;15.588;2023-03-01T01:21:55;98730.64;;;-4.07;76.21
73106;BME280;61559;50.476;15.588;2023-03-01T01:24:26;98725.66;;;-4.14;76.52
73106;BME280;61559;50.476;15.588;2023-03-01T01:26:57;98728.33;;;-4.21;76.45
73106;BME280;61559;50.476;15.588;2023-03-01T01:29:28;98728.52;;;-4.26;76.50
73106;BME280;61559;50.476;15.588;2023-03-01T01:31:59;98726.29;;;-4.28;76.46
73106;BME280;61559;50.476;15.588;2023-03-01T01:34:31;98724.77;;;-4.30;76.43
73106;BME280;61559;50.476;15.588;2023-03-01T01:37:02;98728.46;;;-4.33;76.26
73106;BME280;61559;50.476;15.588;2023-03-01T01:39:37;98722.08;;;-4.35;76.28
73106;BME280;61559;50.476;15.588;2023-03-01T01:42:14;98717.48;;;-4.39;76.23
73106;BME280;61559;50.476;15.588;2023-03-01T01:44:48;98716.75;;;-4.41;76.06
73106;BME280;61559;50.476;15.588;2023-03-01T01:47:21;98720.11;;;-4.44;76.07
73106;BME280;61559;50.476;15.588;2023-03-01T01:49:55;98715.98;;;-4.47;75.96
73106;BME280;61559;50.476;15.588;2023-03-01T01:52:29;98711.99;;;-4.50;75.96
73106;BME280;61559;50.476;15.588;2023-03-01T01:55:05;98711.95;;;-4.52;76.00
73106;BME280;61559;50.476;15.588;2023-03-01T01:57:40;98707.29;;;-4.53;76.09
73106;BME280;61559;50.476;15.588;2023-03-01T02:00:20;98705.80;;;-4.56;76.07
73106;BME280;61559;50.476;15.588;2023-03-01T02:02:54;98701.44;;;-4.59;76.05
73106;BME280;61559;50.476;15.588;2023-03-01T02:05:32;98698.27;;;-4.64;76.14
73106;BME280;61559;50.476;15.588;2023-03-01T02:08:04;98694.93;;;-4.68;76.13
73106;BME280;61559;50.476;15.588;2023-03-01T02:10:36;98695.40;;;-4.72;76.24
73106;BME280;61559;50.476;15.588;2023-03-01T02:13:08;98693.36;;;-4.75;76.37
73106;BME280;61559;50.476;15.588;2023-03-01T02:15:40;98694.06;;;-4.78;76.29
73106;BME280;61559;50.476;15.588;2023-03-01T02:18:16;98693.73;;;-4.81;76.30
73106;BME280;61559;50.476;15.588;2023-03-01T02:20:58;98695.67;;;-4.83;76.37
73106;BME280;61559;50.476;15.588;2023-03-01T02:23:34;98693.17;;;-4.86;76.47
73106;BME280;61559;50.476;15.588;2023-03-01T02:26:09;98691.15;;;-4.90;76.36
73106;BME280;61559;50.476;15.588;2023-03-01T02:28:44;98696.80;;;-4.94;76.48
73106;BME280;61559;50.476;15.588;2023-03-01T02:31:18;98697.48;;;-4.99;76.68
73106;BME280;61559;50.476;15.588;2023-03-01T02:34:08;98692.88;;;-5.02;76.54
73106;BME280;61559;50.476;15.588;2023-03-01T02:36:44;98689.55;;;-5.05;76.71
73106;BME280;61559;50.476;15.588;2023-03-01T02:39:21;98688.24;;;-5.08;76.55
73106;BME280;61559;50.476;15.588;2023-03-01T02:41:56;98684.71;;;-5.12;76.81
73106;BME280;61559;50.476;15.588;2023-03-01T02:44:27;98681.52;;;-5.16;76.77
73106;BME280;61559;50.476;15.588;2023-03-01T02:47:02;98683.61;;;-5.19;76.88
73106;BME280;61559;50.476;15.588;2023-03-01T02:49:35;98683.11;;;-5.22;77.07
73106;BME280;61559;50.476;15.588;2023-03-01T02:52:26;98683.69;;;-5.25;77.03
73106;BME280;61559;50.476;15.588;2023-03-01T02:55:03;98683.36;;;-5.30;77.15
73106;BME280;61559;50.476;15.588;2023-03-01T02:57:40;98681.73;;;-5.30;77.39
73106;BME280;61559;50.476;15.588;2023-03-01T03:00:16;98680.27;;;-5.32;77.25
73106;BME280;61559;50.476;15.588;2023-03-01T03:02:51;98677.06;;;-5.33;77.41
73106;BME280;61559;50.476;15.588;2023-03-01T03:05:26;98673.41;;;-5.35;77.53
73106;BME280;61559;50.476;15.588;2023-03-01T03:07:58;98671.95;;;-5.38;77.51
73106;BME280;61559;50.476;15.588;2023-03-01T03:10:33;98668.09;;;-5.41;77.33
73106;BME280;61559;50.476;15.588;2023-03-01T03:13:06;98666.02;;;-5.45;77.48
73106;BME280;61559;50.476;15.588;2023-03-01T03:15:38;98662.83;;;-5.48;77.82
73106;BME280;61559;50.476;15.588;2023-03-01T03:18:11;98662.05;;;-5.49;77.89
73106;BME280;61559;50.476;15.588;2023-03-01T03:20:44;98659.67;;;-5.49;78.04
73106;BME280;61559;50.476;15.588;2023-03-01T03:23:16;98659.45;;;-5.49;78.07
73106;BME280;61559;50.476;15.588;2023-03-01T03:25:49;98659.30;;;-5.49;78.07
73106;BME280;61559;50.476;15.588;2023-03-01T03:28:34;98662.36;;;-5.48;78.44
73106;BME280;61559;50.476;15.588;2023-03-01T03:31:07;98658.31;;;-5.47;78.23
73106;BME280;61559;50.476;15.588;2023-03-01T03:33:38;98656.03;;;-5.48;78.39
73106;BME280;61559;50.476;15.588;2023-03-01T03:36:09;98654.09;;;-5.46;78.93
73106;BME280;61559;50.476;15.588;2023-03-01T03:38:47;98649.50;;;-5.45;78.79
73106;BME280;61559;50.476;15.588;2023-03-01T03:41:18;98645.48;;;-5.45;79.01
73106;BME280;61559;50.476;15.588;2023-03-01T03:43:49;98642.45;;;-5.46;79.01
73106;BME280;61559;50.476;15.588;2023-03-01T03:46:20;98640.52;;;-5.47;79.90
73106;BME280;61559;50.476;15.588;2023-03-01T03:48:51;98641.73;;;-5.46;79.75
73106;BME280;61559;50.476;15.588;2023-03-01T03:51:22;98639.87;;;-5.43;79.58
73106;BME280;61559;50.476;15.588;2023-03-01T03:53:53;98637.92;;;-5.41;79.46
73106;BME280;61559;50.476;15.588;2023-03-01T03:56:26;98639.33;;;-5.37;79.56
73106;BME280;61559;50.476;15.588;2023-03-01T03:58:57;98636.76;;;-5.35;79.04
73106;BME280;61559;50.476;15.588;2023-03-01T04:01:28;98634.56;;;-5.35;79.24
73106;BME280;61559;50.476;15.588;2023-03-01T04:04:00;98633.01;;;-5.36;78.91
73106;BME280;61559;50.476;15.588;2023-03-01T04:06:33;98629.89;;;-5.38;78.62
73106;BME280;61559;50.476;15.588;2023-03-01T04:09:05;98629.96;;;-5.41;78.46
73106;BME280;61559;50.476;15.588;2023-03-01T04:11:35;98629.92;;;-5.45;78.37
73106;BME280;61559;50.476;15.588;2023-03-01T04:14:08;98631.83;;;-5.47;78.56
73106;BME280;61559;50.476;15.588;2023-03-01T04:16:40;98634.60;;;-5.48;78.70
73106;BME280;61559;50.476;15.588;2023-03-01T04:19:11;98638.05;;;-5.49;78.76
73106;BME280;61559;50.476;15.588;2023-03-01T04:21:44;98636.44;;;-5.49;78.73
73106;BME280;61559;50.476;15.588;2023-03-01T04:24:15;98637.73;;;-5.50;78.77
73106;BME280;61559;50.476;15.588;2023-03-01T04:26:46;98642.10;;;-5.51;78.71
73106;BME280;61559;50.476;15.588;2023-03-01T04:29:21;98643.78;;;-5.52;79.26
73106;BME280;61559;50.476;15.588;2023-03-01T04:31:53;98643.70;;;-5.51;79.58
73106;BME280;61559;50.476;15.588;2023-03-01T04:34:24;98642.82;;;-5.51;79.52
73106;BME280;61559;50.476;15.588;2023-03-01T04:36:56;98638.02;;;-5.49;79.81
73106;BME280;61559;50.476;15.588;2023-03-01T04:39:27;98630.46;;;-5.48;79.51
73106;BME280;61559;50.476;15.588;2023-03-01T04:41:58;98634.29;;;-5.48;79.10
73106;BME280;61559;50.476;15.588;2023-03-01T04:44:30;98635.08;;;-5.48;79.24
73106;BME280;61559;50.476;15.588;2023-03-01T04:47:01;98636.74;;;-5.46;79.31
73106;BME280;61559;50.476;15.588;2023-03-01T04:49:32;98636.29;;;-5.45;79.29
73106;BME280;61559;50.476;15.588;2023-03-01T04:52:04;98636.38;;;-5.44;79.54
73106;BME280;61559;50.476;15.588;2023-03-01T04:54:36;98641.52;;;-5.44;79.51
73106;BME280;61559;50.476;15.588;2023-03-01T04:57:05;98641.18;;;-5.43;79.50
73106;BME280;61559;50.476;15.588;2023-03-01T04:59:36;98644.30;;;-5.44;79.08
73106;BME280;61559;50.476;15.588;2023-03-01T05:02:08;98635.72;;;-5.45;79.27
73106;BME280;61559;50.476;15.588;2023-03-01T05:04:39;98639.30;;;-5.45;79.17
73106;BME280;61559;50.476;15.588;2023-03-01T05:07:10;98635.61;;;-5.47;79.16
73106;BME280;61559;50.476;15.588;2023-03-01T05:09:42;98637.84;;;-5.48;78.91
73106;BME280;61559;50.476;15.588;2023-03-01T05:12:14;98635.45;;;-5.51;79.20
73106;BME280;61559;50.476;15.588;2023-03-01T05:14:44;98633.92;;;-5.53;79.15
73106;BME280;61559;50.476;15.588;2023-03-01T05:17:15;98632.95;;;-5.57;79.10
73106;BME280;61559;50.476;15.588;2023-03-01T05:19:46;98630.27;;;-5.58;79.41
73106;BME280;61559;50.476;15.588;2023-03-01T05:22:17;98632.56;;;-5.59;79.41
73106;BME280;61559;50.476;15.588;2023-03-01T05:24:48;98635.70;;;-5.62;79.35
73106;BME280;61559;50.476;15.588;2023-03-01T05:27:19;98634.70;;;-5.65;79.25
73106;BME280;61559;50.476;15.588;2023-03-01T05:29:52;98639.55;;;-5.66;79.21
73106;BME280;61559;50.476;15.588;2023-03-01T05:32:23;98637.83;;;-5.69;79.35
73106;BME280;61559;50.476;15.588;2023-03-01T05:34:54;98641.11;;;-5.71;79.21
73106;BME280;61559;50.476;15.588;2023-03-01T05:37:25;98640.02;;;-5.72;79.45
73106;BME280;61559;50.476;15.588;2023-03-01T05:39:56;98645.64;;;-5.73;79.42
73106;BME280;61559;50.476;15.588;2023-03-01T05:42:27;98646.40;;;-5.74;79.33
73106;BME280;61559;50.476;15.588;2023-03-01T05:44:58;98650.40;;;-5.75;79.19
73106;BME280;61559;50.476;15.588;2023-03-01T05:47:28;98654.17;;;-5.76;79.27
73106;BME280;61559;50.476;15.588;2023-03-01T05:50:01;98654.64;;;-5.78;79.26
73106;BME280;61559;50.476;15.588;2023-03-01T05:52:32;98655.13;;;-5.80;79.28
73106;BME280;61559;50.476;15.588;2023-03-01T05:55:04;98654.38;;;-5.80;79.20
73106;BME280;61559;50.476;15.588;2023-03-01T05:57:35;98655.48;;;-5.81;79.35
73106;BME280;61559;50.476;15.588;2023-03-01T06:00:11;98655.23;;;-5.82;79.24
73106;BME280;61559;50.476;15.588;2023-03-01T06:02:42;98654.69;;;-5.83;79.38
73106;BME280;61559;50.476;15.588;2023-03-01T06:05:14;98658.84;;;-5.84;79.49
73106;BME280;61559;50.476;15.588;2023-03-01T06:07:46;98658.92;;;-5.84;79.48
73106;BME280;61559;50.476;15.588;2023-03-01T06:10:18;98654.38;;;-5.83;79.45
73106;BME280;61559;50.476;15.588;2023-03-01T06:12:50;98651.59;;;-5.81;79.53
73106;BME280;61559;50.476;15.588;2023-03-01T06:15:22;98656.13;;;-5.80;79.67
73106;BME280;61559;50.476;15.588;2023-03-01T06:17:55;98663.03;;;-5.77;79.67
73106;BME280;61559;50.476;15.588;2023-03-01T06:20:29;98662.13;;;-5.75;79.88
73106;BME280;61559;50.476;15.588;2023-03-01T06:23:00;98660.71;;;-5.71;79.57
73106;BME280;61559;50.476;15.588;2023-03-01T06:25:31;98661.67;;;-5.68;79.74
73106;BME280;61559;50.476;15.588;2023-03-01T06:28:03;98658.50;;;-5.64;79.73
73106;BME280;61559;50.476;15.588;2023-03-01T06:30:34;98655.91;;;-5.60;79.56
73106;BME280;61559;50.476;15.588;2023-03-01T06:33:05;98650.46;;;-5.58;79.54
73106;BME280;61559;50.476;15.588;2023-03-01T06:35:36;98653.34;;;-5.54;79.75
73106;BME280;61559;50.476;15.588;2023-03-01T06:38:07;98652.83;;;-5.51;79.80
73106;BME280;61559;50.476;15.588;2023-03-01T06:40:38;98656.23;;;-5.47;79.86
73106;BME280;61559;50.476;15.588;2023-03-01T06:43:10;98659.55;;;-5.44;79.93
73106;BME280;61559;50.476;15.588;2023-03-01T06:45:41;98665.05;;;-5.41;80.02
73106;BME280;61559;50.476;15.588;2023-03-01T06:48:13;98669.30;;;-5.37;80.11
73106;BME280;61559;50.476;15.588;2023-03-01T06:50:44;98666.73;;;-5.32;80.30
73106;BME280;61559;50.476;15.588;2023-03-01T06:53:15;98663.77;;;-5.26;80.43
73106;BME280;61559;50.476;15.588;2023-03-01T06:55:46;98666.23;;;-5.21;80.74
73106;BME280;61559;50.476;15.588;2023-03-01T06:58:17;98668.17;;;-5.14;81.34
73106;BME280;61559;50.476;15.588;2023-03-01T07:00:48;98666.90;;;-4.99;81.92
73106;BME280;61559;50.476;15.588;2023-03-01T07:03:19;98661.68;;;-4.80;82.00
73106;BME280;61559;50.476;15.588;2023-03-01T07:05:51;98657.89;;;-4.63;81.72
73106;BME280;61559;50.476;15.588;2023-03-01T07:08:23;98658.27;;;-4.47;81.66
73106;BME280;61559;50.476;15.588;2023-03-01T07:10:57;98660.66;;;-4.32;81.60
73106;BME280;61559;50.476;15.588;2023-03-01T07:13:31;98658.35;;;-4.17;81.59
73106;BME280;61559;50.476;15.588;2023-03-01T07:16:02;98658.59;;;-4.05;81.36
73106;BME280;61559;50.476;15.588;2023-03-01T07:18:34;98654.20;;;-3.89;81.26
73106;BME280;61559;50.476;15.588;2023-03-01T07:21:11;98650.52;;;-3.67;80.71
73106;BME280;61559;50.476;15.588;2023-03-01T07:23:42;98648.36;;;-3.46;80.16
73106;BME280;61559;50.476;15.588;2023-03-01T07:26:13;98647.67;;;-3.30;80.05
73106;BME280;61559;50.476;15.588;2023-03-01T07:28:44;98641.06;;;-3.11;79.52
73106;BME280;61559;50.476;15.588;2023-03-01T07:31:15;98637.51;;;-2.92;78.72
73106;BME280;61559;50.476;15.588;2023-03-01T07:33:46;98635.56;;;-2.72;77.75
73106;BME280;61559;50.476;15.588;2023-03-01T07:36:20;98635.77;;;-2.52;77.45
73106;BME280;61559;50.476;15.588;2023-03-01T07:38:51;98632.55;;;-2.34;76.70
73106;BME280;61559;50.476;15.588;2023-03-01T07:41:23;98635.38;;;-2.18;75.92
73106;BME280;61559;50.476;15.588;2023-03-01T07:43:54;98637.26;;;-1.99;74.66
73106;BME280;61559;50.476;15.588;2023-03-01T07:46:25;98636.75;;;-1.82;73.56
73106;BME280;61559;50.476;15.588;2023-03-01T07:48:56;98633.45;;;-1.65;73.10
73106;BME280;61559;50.476;15.588;2023-03-01T07:51:27;98628.70;;;-1.52;72.60
73106;BME280;61559;50.476;15.588;2023-03-01T07:53:59;98630.68;;;-1.40;73.01
73106;BME280;61559;50.476;15.588;2023-03-01T07:56:30;98629.27;;;-1.28;73.39
73106;BME280;61559;50.476;15.588;2023-03-01T07:59:00;98629.48;;;-1.19;73.08
73106;BME280;61559;50.476;15.588;2023-03-01T08:01:31;98627.19;;;-1.10;71.40
73106;BME280;61559;50.476;15.588;2023-03-01T08:04:02;98626.67;;;-1.00;71.43
73106;BME280;61559;50.476;15.588;2023-03-01T08:06:36;98625.90;;;-0.89;70.19
73106;BME280;61559;50.476;15.588;2023-03-01T08:09:07;98624.36;;;-0.79;69.95
73106;BME280;61559;50.476;15.588;2023-03-01T08:11:39;98620.85;;;-0.71;68.58
73106;BME280;61559;50.476;15.588;2023-03-01T08:14:10;98617.79;;;-0.62;68.98
73106;BME280;61559;50.476;15.588;2023-03-01T08:16:41;98613.14;;;-0.53;69.68
73106;BME280;61559;50.476;15.588;2023-03-01T08:19:13;98614.81;;;-0.45;68.83
73106;BME280;61559;50.476;15.588;2023-03-01T08:21:44;98611.78;;;-0.36;68.13
73106;BME280;61559;50.476;15.588;2023-03-01T08:24:15;98608.44;;;-0.27;68.18
73106;BME280;61559;50.476;15.588;2023-03-01T08:26:46;98603.08;;;-0.20;66.72
73106;BME280;61559;50.476;15.588;2023-03-01T08:29:17;98604.79;;;-0.12;67.09
73106;BME280;61559;50.476;15.588;2023-03-01T08:31:48;98599.05;;;-0.04;66.73
73106;BME280;61559;50.476;15.588;2023-03-01T08:34:20;98599.34;;;0.04;66.13
73106;BME280;61559;50.476;15.588;2023-03-01T08:36:51;98593.02;;;0.12;66.52
73106;BME280;61559;50.476;15.588;2023-03-01T08:39:22;98589.88;;;0.21;67.07
73106;BME280;61559;50.476;15.588;2023-03-01T08:41:53;98583.08;;;0.30;66.30
73106;BME280;61559;50.476;15.588;2023-03-01T08:44:24;98578.96;;;0.39;65.07
73106;BME280;61559;50.476;15.588;2023-03-01T08:46:55;98578.55;;;0.47;64.51
73106;BME280;61559;50.476;15.588;2023-03-01T08:49:27;98576.83;;;0.54;64.37
73106;BME280;61559;50.476;15.588;2023-03-01T08:51:58;98573.27;;;0.64;64.79
73106;BME280;61559;50.476;15.588;2023-03-01T08:54:29;98568.33;;;0.71;64.42
73106;BME280;61559;50.476;15.588;2023-03-01T08:57:02;98569.08;;;0.79;64.58
73106;BME280;61559;50.476;15.588;2023-03-01T08:59:33;98569.70;;;0.89;64.61
73106;BME280;61559;50.476;15.588;2023-03-01T09:02:08;98564.89;;;0.98;64.74
73106;BME280;61559;50.476;15.588;2023-03-01T09:04:42;98566.16;;;1.06;64.43
73106;BME280;61559;50.476;15.588;2023-03-01T09:07:14;98560.53;;;1.15;64.24
73106;BME280;61559;50.476;15.588;2023-03-01T09:09:45;98560.25;;;1.23;64.10
73106;BME280;61559;50.476;15.588;2023-03-01T09:12:16;98564.02;;;1.32;63.46
73106;BME280;61559;50.476;15.588;2023-03-01T09:14:47;98561.27;;;1.38;62.13
73106;BME280;61559;50.476;15.588;2023-03-01T09:17:18;98559.29;;;1.44;62.41
73106;BME280;61559;50.476;15.588;2023-03-01T09:19:51;98554.99;;;1.49;61.64
73106;BME280;61559;50.476;15.588;2023-03-01T09:22:22;98554.48;;;1.53;61.28
73106;BME280;61559;50.476;15.588;2023-03-01T09:24:53;98555.73;;;1.58;61.45
73106;BME280;61559;50.476;15.588;2023-03-01T09:27:26;98555.39;;;1.62;61.43
73106;BME280;61559;50.476;15.588;2023-03-01T09:29:57;98552.38;;;1.67;61.18
73106;BME280;61559;50.476;15.588;2023-03-01T09:32:28;98548.39;;;1.73;61.20
73106;BME280;61559;50.476;15.588;2023-03-01T09:35:00;98544.59;;;1.82;61.84
73106;BME280;61559;50.476;15.588;2023-03-01T09:37:35;98548.05;;;1.92;61.17
73106;BME280;61559;50.476;15.588;2023-03-01T09:40:10;98543.59;;;1.99;60.64
73106;BME280;61559;50.476;15.588;2023-03-01T09:42:59;98540.02;;;2.06;60.80
73106;BME280;61559;50.476;15.588;2023-03-01T09:45:35;98538.98;;;2.15;60.36
73106;BME280;61559;50.476;15.588;2023-03-01T09:48:12;98537.14;;;2.23;59.77
73106;BME280;61559;50.476;15.588;2023-03-01T09:50:46;98535.48;;;2.28;58.99
73106;BME280;61559;50.476;15.588;2023-03-01T09:53:20;98536.84;;;2.34;58.74
73106;BME280;61559;50.476;15.588;2023-03-01T09:56:02;98530.45;;;2.40;59.01
73106;BME280;61559;50.476;15.588;2023-03-01T09:58:48;98533.66;;;2.46;58.88
73106;BME280;61559;50.476;15.588;2023-03-01T10:01:37;98533.09;;;2.55;58.39
73106;BME280;61559;50.476;15.588;2023-03-01T10:04:28;98528.39;;;2.61;57.46
73106;BME280;61559;50.476;15.588;2023-03-01T10:07:12;98531.05;;;2.71;58.32
73106;BME280;61559;50.476;15.588;2023-03-01T10:09:46;98529.62;;;2.80;57.37
73106;BME280;61559;50.476;15.588;2023-03-01T10:12:20;98526.46;;;2.86;57.75
73106;BME280;61559;50.476;15.588;2023-03-01T10:14:57;98530.39;;;2.94;58.24
73106;BME280;61559;50.476;15.588;2023-03-01T10:17:37;98527.90;;;3.00;57.67
73106;BME280;61559;50.476;15.588;2023-03-01T10:20:20;98524.95;;;3.08;57.09
73106;BME280;61559;50.476;15.588;2023-03-01T10:22:52;98519.59;;;3.16;57.04
73106;BME280;61559;50.476;15.588;2023-03-01T10:25:40;98517.56;;;3.23;57.48
73106;BME280;61559;50.476;15.588;2023-03-01T10:28:20;98514.29;;;3.34;57.31
73106;BME280;61559;50.476;15.588;2023-03-01T10:30:54;98511.00;;;3.43;57.10
73106;BME280;61559;50.476;15.588;2023-03-01T10:33:28;98509.66;;;3.52;56.25
73106;BME280;61559;50.476;15.588;2023-03-01T10:35:59;98505.40;;;3.57;54.03
73106;BME280;61559;50.476;15.588;2023-03-01T10:38:33;98502.16;;;3.63;55.44
73106;BME280;61559;50.476;15.588;2023-03-01T10:41:18;98504.72;;;3.72;56.33
73106;BME280;61559;50.476;15.588;2023-03-01T10:43:51;98499.48;;;3.81;56.08
73106;BME280;61559;50.476;15.588;2023-03-01T10:46:32;98498.86;;;3.89;56.24
73106;BME280;61559;50.476;15.588;2023-03-01T10:49:16;98497.88;;;3.97;55.37
73106;BME280;61559;50.476;15.588;2023-03-01T10:51:51;98487.92;;;4.00;55.25
73106;BME280;61559;50.476;15.588;2023-03-01T10:54:25;98479.17;;;4.08;56.31
73106;BME280;61559;50.476;15.588;2023-03-01T10:56:59;98477.27;;;4.15;55.43
73106;BME280;61559;50.476;15.588;2023-03-01T10:59:32;98481.04;;;4.20;55.62
73106;BME280;61559;50.476;15.588;2023-03-01T11:02:15;98482.36;;;4.25;55.81
73106;BME280;61559;50.476;15.588;2023-03-01T11:05:02;98481.00;;;4.33;55.68
73106;BME280;61559;50.476;15.588;2023-03-01T11:07:49;98470.82;;;4.37;55.06
73106;BME280;61559;50.476;15.588;2023-03-01T11:10:24;98466.80;;;4.39;52.89
73106;BME280;61559;50.476;15.588;2023-03-01T11:13:08;98467.83;;;4.38;52.89
73106;BME280;61559;50.476;15.588;2023-03-01T11:15:39;98469.23;;;4.41;54.05
73106;BME280;61559;50.476;15.588;2023-03-01T11:18:21;98462.79;;;4.46;53.80
73106;BME280;61559;50.476;15.588;2023-03-01T11:21:06;98461.36;;;4.52;54.41
73106;BME280;61559;50.476;15.588;2023-03-01T11:23:40;98458.85;;;4.58;54.16
73106;BME280;61559;50.476;15.588;2023-03-01T11:26:14;98455.63;;;4.63;54.42
73106;BME280;61559;50.476;15.588;2023-03-01T11:28:50;98455.67;;;4.68;53.04
73106;BME280;61559;50.476;15.588;2023-03-01T11:31:25;98449.82;;;4.71;53.52
73106;BME280;61559;50.476;15.588;2023-03-01T11:33:59;98446.82;;;4.72;52.70
73106;BME280;61559;50.476;15.588;2023-03-01T11:36:38;98441.79;;;4.75;52.45
73106;BME280;61559;50.476;15.588;2023-03-01T11:39:22;98438.33;;;4.75;52.53
73106;BME280;61559;50.476;15.588;2023-03-01T11:42:05;98435.79;;;4.77;52.53
73106;BME280;61559;50.476;15.588;2023-03-01T11:44:50;98431.92;;;4.81;52.33
73106;BME280;61559;50.476;15.588;2023-03-01T11:47:31;98429.60;;;4.85;52.05
73106;BME280;61559;50.476;15.588;2023-03-01T11:50:17;98423.56;;;4.89;50.79
73106;BME280;61559;50.476;15.588;2023-03-01T11:53:17;98423.41;;;4.92;50.35
73106;BME280;61559;50.476;15.588;2023-03-01T11:56:08;98416.80;;;4.95;49.21
73106;BME280;61559;50.476;15.588;2023-03-01T11:58:57;98416.38;;;5.01;48.24
73106;BME280;61559;50.476;15.588;2023-03-01T12:01:40;98408.33;;;5.03;47.66
73106;BME280;61559;50.476;15.588;2023-03-01T12:07:20;98407.38;;;5.08;48.10
73106;BME280;61559;50.476;15.588;2023-03-01T12:10:19;98403.30;;;5.10;47.49
73106;BME280;61559;50.476;15.588;2023-03-01T12:13:08;98404.11;;;5.18;48.21
73106;BME280;61559;50.476;15.588;2023-03-01T12:16:04;98402.58;;;5.24;47.80
73106;BME280;61559;50.476;15.588;2023-03-01T12:18:49;98403.16;;;5.31;47.64
73106;BME280;61559;50.476;15.588;2023-03-01T12:21:34;98405.34;;;5.37;48.04
73106;BME280;61559;50.476;15.588;2023-03-01T12:24:30;98399.54;;;5.44;47.57
73106;BME280;61559;50.476;15.588;2023-03-01T12:27:19;98393.03;;;5.50;47.98
73106;BME280;61559;50.476;15.588;2023-03-01T12:30:02;98387.84;;;5.56;47.45
73106;BME280;61559;50.476;15.588;2023-03-01T12:32:45;98392.50;;;5.61;47.21
73106;BME280;61559;50.476;15.588;2023-03-01T12:35:37;98381.27;;;5.63;46.98
73106;BME280;61559;50.476;15.588;2023-03-01T12:38:22;98380.71;;;5.69;48.04
73106;BME280;61559;50.476;15.588;2023-03-01T12:41:05;98381.03;;;5.74;47.95
73106;BME280;61559;50.476;15.588;2023-03-01T12:43:51;98379.45;;;5.76;47.54
73106;BME280;61559;50.476;15.588;2023-03-01T12:46:36;98376.70;;;5.77;48.15
73106;BME280;61559;50.476;15.588;2023-03-01T12:49:12;98374.55;;;5.81;47.97
73106;BME280;61559;50.476;15.588;2023-03-01T12:51:48;98366.29;;;5.86;48.18
73106;BME280;61559;50.476;15.588;2023-03-01T12:54:27;98369.64;;;5.91;47.80
73106;BME280;61559;50.476;15.588;2023-03-01T12:57:06;98367.04;;;5.98;47.96
73106;BME280;61559;50.476;15.588;2023-03-01T12:59:45;98369.75;;;6.00;48.10
73106;BME280;61559;50.476;15.588;2023-03-01T13:02:23;98367.15;;;6.01;48.85
73106;BME280;61559;50.476;15.588;2023-03-01T13:05:05;98366.06;;;6.07;49.37
73106;BME280;61559;50.476;15.588;2023-03-01T13:07:41;98363.49;;;6.13;48.42
73106;BME280;61559;50.476;15.588;2023-03-01T13:10:19;98366.27;;;6.17;48.25
73106;BME280;61559;50.476;15.588;2023-03-01T13:13:08;98360.38;;;6.18;48.70
73106;BME280;61559;50.476;15.588;2023-03-01T13:15:42;98354.59;;;6.20;49.54
73106;BME280;61559;50.476;15.588;2023-03-01T13:18:32;98354.19;;;6.23;49.04
73106;BME280;61559;50.476;15.588;2023-03-01T13:21:05;98355.20;;;6.28;48.23
73106;BME280;61559;50.476;15.588;2023-03-01T13:23:40;98359.60;;;6.31;48.56
73106;BME280;61559;50.476;15.588;2023-03-01T13:26:14;98360.98;;;6.33;47.58
73106;BME280;61559;50.476;15.588;2023-03-01T13:28:54;98356.38;;;6.34;47.27
73106;BME280;61559;50.476;15.588;2023-03-01T13:35:04;98351.83;;;6.33;46.92
73106;BME280;61559;50.476;15.588;2023-03-01T13:41:03;98348.76;;;6.36;47.29